Afyon, Turkey

3:41 PM EEST on October 25, 2014 (GMT +0300)
Suleyman Demirel | Change Station
CLOSE
Current Station
Airport
Location: Suleyman Demirel,
Elevation: 2835 ft
Nearby Weather Stations

Elev 2835 ft 37.86 °N, 30.37 °E | Updated 21 minutes ago

Light Rain Showers
Light Showers Rain
57 °F
Feels Like 57 °F
N
9
Wind Variable Wind from WSW

Today
High -- | Low -- °F
--% Chance of Precip.
Yesterday
High -- | Low -- °F
Precip. -- in
7:17 AM 6:06 PM
Waxing Crescent, 3% visible
Pressure 29.92 in
Visibility 6.2 miles
Clouds Mostly Cloudy 3000 ft
Mostly Cloudy 9000 ft
Dew Point 54 °F
Humidity 88%
Rainfall 0.00 in
Snow Depth Not available.
UV 2 out of 12
Pollen Not available.
Air Quality Not available.
Flu Activity Not available.
METAR LTFC 251220Z 24008KT 9999 -SHRA BKN030 BKN090 14/12 Q1013

More Conditions Fewer Conditions

Pressure 29.92 in
Visibility 6.2 miles
Clouds Mostly Cloudy 3000 ft
Mostly Cloudy 9000 ft
Dew Point 54 °F
Humidity 88%
Rainfall 0.00 in
Snow Depth Not available.
UV 2 out of 12
Pollen Not available.
Air Quality Not available.
Flu Activity Not available.
METAR LTFC 251220Z 24008KT 9999 -SHRA BKN030 BKN090 14/12 Q1013

More Conditions Fewer Conditions

10-Day Weather Forecast

Almanac

Astronomy

Oct. 25, 2014 Rise Set
Actual Time 7:17 AM EEST 6:06 PM EEST
Civil Twilight 6:49 AM EEST 6:33 PM EEST
Nautical Twilight 6:18 AM EEST 7:04 PM EEST
Astronomical Twilight 5:47 AM EEST 7:35 PM EEST
Moon 8:35 AM EEST 7:15 PM EEST
Length of Visible Light 11h 43m
Length of Day
10h 49m
Tomorrow will be 2m 19s shorter.
Waxing Crescent, 3% of the Moon is Illuminated
Today
Waxing Crescent
Oct 30
First Quarter
Nov 6
Full
Nov 14
Last Quarter
Nov 22
New

Yesterday's Extremes

Country Highs Country Lows

Community

WunderPhotos

Upload Photos

1,764,821 photos uploaded!

Nearby

Snow Depth

Not available.

Earthquake Activity

City Distance Mag. Time & Date
No recent earthquake activity has been reported nearby.
Minimum magnitude displayed is 2.5.

Coastal Water Temperatures

Place Temperature
No Stations Reporting

Nearby Weather Stations